Time;durP1;ratioP1;P1;durP2;ratioP2;P2;SDS_P1;SDS_P2;PMS_P1;PMS_P2;Temp;Humidity;BMP_temperature;BMP_pressure;BME280_temperature;BME280_humidity;BME280_pressure;Samples;Min_cycle;Max_cycle;Signal;HPM_P1;HPM_P2
2022/07/11 00:01:09;;;;;;;8.10;1.77;;;18.70;72.70;;;;;;9178442;19;20035;-66
2022/07/11 00:04:15;;;;;;;6.03;1.85;;;18.70;72.80;;;;;;9176600;19;20011;-65
2022/07/11 00:07:26;;;;;;;6.57;1.63;;;18.70;72.70;;;;;;9181926;19;20507;-67
2022/07/11 00:10:37;;;;;;;7.97;1.83;;;18.70;72.80;;;;;;9180011;19;20010;-65
2022/07/11 00:13:47;;;;;;;4.47;1.40;;;18.70;73.00;;;;;;9179778;19;20011;-65
2022/07/11 00:16:54;;;;;;;5.85;1.50;;;18.70;72.90;;;;;;9180739;19;20082;-66
2022/07/11 00:19:59;;;;;;;8.30;1.70;;;18.60;72.90;;;;;;9180927;19;20431;-66
2022/07/11 00:23:04;;;;;;;6.10;1.55;;;18.60;72.80;;;;;;9180150;19;20015;-66
2022/07/11 00:26:10;;;;;;;4.50;1.52;;;18.60;72.90;;;;;;9179694;19;20007;-66
2022/07/11 00:29:20;;;;;;;4.45;1.17;;;18.60;73.00;;;;;;9181387;19;20044;-65
2022/07/11 00:32:25;;;;;;;6.68;1.70;;;18.60;73.00;;;;;;9180313;19;20030;-66
2022/07/11 00:35:30;;;;;;;5.25;1.95;;;18.60;73.10;;;;;;9180070;19;20364;-66
2022/07/11 00:38:38;;;;;;;5.25;1.60;;;18.60;73.10;;;;;;9179819;19;20040;-66
2022/07/11 00:41:45;;;;;;;4.75;1.63;;;18.50;73.00;;;;;;9177495;19;20021;-66
2022/07/11 00:44:53;;;;;;;4.22;1.40;;;18.60;73.10;;;;;;9180671;19;20018;-67
2022/07/11 00:47:58;;;;;;;6.72;1.42;;;18.50;73.10;;;;;;9180304;19;20046;-65
2022/07/11 00:51:05;;;;;;;5.57;1.40;;;18.50;73.10;;;;;;9179220;19;20128;-67
2022/07/11 00:54:13;;;;;;;3.05;1.42;;;18.50;73.20;;;;;;9178576;19;20015;-66
2022/07/11 00:57:18;;;;;;;3.55;1.50;;;18.50;73.20;;;;;;9179817;19;20046;-65
2022/07/11 01:00:26;;;;;;;8.55;1.63;;;18.50;73.20;;;;;;9179681;19;20011;-66
2022/07/11 01:03:31;;;;;;;10.45;1.67;;;18.50;73.20;;;;;;9179974;19;20021;-65
2022/07/11 01:06:36;;;;;;;3.00;1.42;;;18.50;73.20;;;;;;9178137;19;20384;-66
2022/07/11 01:09:42;;;;;;;8.05;1.77;;;18.50;73.30;;;;;;9178690;19;20026;-66
2022/07/11 01:12:49;;;;;;;7.75;1.52;;;18.40;73.20;;;;;;9179505;19;20648;-67
2022/07/11 01:16:25;;;;;;;8.07;1.55;;;18.40;73.30;;;;;;9184625;19;20014;-66
2022/07/11 01:19:30;;;;;;;3.38;1.60;;;18.40;73.50;;;;;;9188523;19;20015;-65
2022/07/11 01:22:41;;;;;;;3.88;1.70;;;18.40;73.30;;;;;;9189079;19;20029;-65
2022/07/11 01:25:49;;;;;;;6.15;1.50;;;18.40;73.40;;;;;;9189546;19;20025;-65
2022/07/11 01:28:59;;;;;;;3.38;1.42;;;18.40;73.50;;;;;;9187099;19;20074;-65
2022/07/11 01:32:06;;;;;;;4.43;1.20;;;18.40;73.50;;;;;;9187108;19;20015;-66
2022/07/11 01:35:11;;;;;;;6.78;1.88;;;18.30;73.50;;;;;;9187668;19;20796;-65
2022/07/11 01:38:16;;;;;;;2.55;1.20;;;18.30;73.50;;;;;;9188441;19;20364;-66
2022/07/11 01:41:24;;;;;;;3.70;1.25;;;18.30;73.60;;;;;;9180963;19;20018;-65
2022/07/11 01:44:29;;;;;;;10.05;1.20;;;18.30;73.60;;;;;;9187421;19;20541;-67
2022/07/11 01:47:34;;;;;;;6.53;1.50;;;18.30;73.60;;;;;;9185904;19;20106;-66
2022/07/11 01:50:41;;;;;;;5.50;1.58;;;18.30;73.70;;;;;;9186523;19;20045;-65
2022/07/11 01:53:49;;;;;;;4.85;1.50;;;18.30;73.70;;;;;;9187799;19;20019;-65
2022/07/11 01:56:57;;;;;;;11.60;1.30;;;18.20;73.70;;;;;;9187229;19;20086;-66
2022/07/11 02:00:02;;;;;;;1.98;1.25;;;18.20;73.80;;;;;;9186691;19;20048;-67
2022/07/11 02:03:09;;;;;;;1.70;1.38;;;18.30;73.80;;;;;;9188091;19;20022;-66
2022/07/11 02:06:14;;;;;;;4.93;1.65;;;18.20;73.80;;;;;;9187356;19;20524;-66
2022/07/11 02:09:20;;;;;;;4.80;1.50;;;18.20;73.90;;;;;;9188045;19;20347;-67
2022/07/11 02:12:28;;;;;;;6.50;1.90;;;18.20;73.90;;;;;;9185968;19;20026;-66
2022/07/11 02:15:34;;;;;;;5.32;1.60;;;18.20;74.00;;;;;;9186215;19;20018;-65
2022/07/11 02:18:42;;;;;;;7.10;1.65;;;18.20;74.00;;;;;;9185207;19;20388;-65
2022/07/11 02:21:47;;;;;;;4.40;1.52;;;18.20;74.00;;;;;;9184741;19;20018;-65
2022/07/11 02:24:52;;;;;;;6.95;1.70;;;18.20;74.10;;;;;;9185066;19;20490;-66
2022/07/11 02:28:00;;;;;;;5.55;1.60;;;18.20;74.10;;;;;;9183582;19;20030;-65
2022/07/11 02:31:10;;;;;;;4.72;1.42;;;18.10;74.20;;;;;;9185221;19;20017;-66
2022/07/11 02:34:15;;;;;;;3.42;1.48;;;18.10;74.20;;;;;;9184437;19;20014;-65
2022/07/11 02:37:20;;;;;;;4.22;1.27;;;18.10;74.20;;;;;;9184578;19;20028;-67
2022/07/11 02:40:26;;;;;;;7.00;1.58;;;18.10;74.30;;;;;;9183466;19;20313;-67
2022/07/11 02:43:34;;;;;;;7.53;1.52;;;18.10;74.30;;;;;;9180216;19;20490;-67
2022/07/11 02:46:39;;;;;;;4.18;1.48;;;18.10;74.40;;;;;;9184811;19;20018;-65
2022/07/11 02:49:44;;;;;;;5.63;1.65;;;18.10;74.40;;;;;;9183277;19;20085;-66
2022/07/11 02:52:49;;;;;;;4.72;2.05;;;18.10;74.50;;;;;;9187062;19;20483;-65
2022/07/11 02:55:54;;;;;;;3.33;1.60;;;18.00;74.50;;;;;;9184623;19;20023;-65
2022/07/11 02:59:02;;;;;;;5.55;2.22;;;18.00;74.50;;;;;;9184804;19;20082;-66
2022/07/11 03:02:07;;;;;;;3.80;1.60;;;18.00;74.60;;;;;;9180900;19;20015;-66
2022/07/11 03:05:13;;;;;;;4.50;1.73;;;18.00;74.60;;;;;;9182048;19;20015;-65
2022/07/11 03:08:18;;;;;;;9.00;2.15;;;18.00;74.60;;;;;;9184819;19;20011;-66
2022/07/11 03:11:23;;;;;;;9.90;2.05;;;18.00;74.60;;;;;;9183906;19;20026;-65
2022/07/11 03:14:33;;;;;;;3.65;1.67;;;17.90;74.70;;;;;;9183351;19;20018;-65
2022/07/11 03:17:38;;;;;;;4.78;1.83;;;17.90;74.80;;;;;;9183591;19;20018;-65
2022/07/11 03:20:43;;;;;;;6.25;2.10;;;17.90;74.80;;;;;;9181298;19;20020;-65
2022/07/11 03:23:49;;;;;;;5.63;2.00;;;17.90;74.90;;;;;;9185126;19;20531;-66
2022/07/11 03:26:54;;;;;;;5.47;1.90;;;17.90;75.00;;;;;;9184295;19;20053;-67
2022/07/11 03:30:04;;;;;;;5.10;1.98;;;17.90;75.10;;;;;;9182837;19;20051;-65
2022/07/11 03:33:10;;;;;;;6.60;2.00;;;17.90;75.10;;;;;;9182080;19;20039;-66
2022/07/11 03:36:15;;;;;;;8.32;2.20;;;17.90;75.10;;;;;;9183983;19;20018;-65
2022/07/11 03:39:20;;;;;;;5.85;1.98;;;17.90;75.10;;;;;;9183599;19;20109;-66
2022/07/11 03:42:25;;;;;;;9.18;2.30;;;17.90;75.20;;;;;;9178522;19;20442;-66
2022/07/11 03:45:33;;;;;;;6.85;2.17;;;17.90;75.20;;;;;;9181325;19;20365;-67
2022/07/11 03:48:38;;;;;;;5.30;2.05;;;17.90;75.40;;;;;;9180878;19;20029;-66
2022/07/11 03:51:43;;;;;;;9.30;3.50;;;17.90;75.30;;;;;;9181407;19;20452;-66
2022/07/11 03:54:48;;;;;;;7.30;2.50;;;17.90;75.30;;;;;;9180650;19;20033;-65
2022/07/11 03:57:54;;;;;;;6.90;2.28;;;17.90;75.40;;;;;;9179640;19;20010;-65
2022/07/11 04:01:02;;;;;;;4.30;2.30;;;17.90;75.40;;;;;;9180353;19;20483;-66
2022/07/11 04:04:08;;;;;;;11.07;2.92;;;17.80;75.50;;;;;;9182151;19;20050;-65
2022/07/11 04:07:21;;;;;;;5.90;2.38;;;17.90;75.50;;;;;;9180876;19;20479;-65
2022/07/11 04:10:26;;;;;;;5.20;2.53;;;17.90;75.50;;;;;;9180627;19;20015;-64
2022/07/11 04:13:32;;;;;;;7.85;2.90;;;17.90;75.60;;;;;;9180486;19;20011;-65
2022/07/11 04:16:40;;;;;;;8.35;2.67;;;17.80;75.60;;;;;;9183113;19;20024;-66
2022/07/11 04:19:45;;;;;;;4.40;2.35;;;17.90;75.70;;;;;;9181537;19;20052;-66
2022/07/11 04:22:50;;;;;;;5.07;2.28;;;17.80;75.60;;;;;;9179916;19;20362;-66
2022/07/11 04:25:55;;;;;;;7.03;2.40;;;17.80;75.70;;;;;;9181631;19;20843;-65
2022/07/11 04:29:03;;;;;;;6.13;3.22;;;17.80;75.70;;;;;;9179985;19;20039;-65
2022/07/11 04:32:13;;;;;;;4.13;2.80;;;17.80;75.70;;;;;;9181076;19;20022;-66
2022/07/11 04:35:19;;;;;;;7.88;2.60;;;17.80;75.80;;;;;;9179888;19;20002;-67
2022/07/11 04:38:25;;;;;;;6.97;2.42;;;17.80;75.80;;;;;;9179725;19;20011;-66
2022/07/11 04:41:32;;;;;;;6.40;2.42;;;17.80;75.80;;;;;;9176774;19;20014;-65
2022/07/11 04:44:41;;;;;;;6.75;2.75;;;17.80;75.90;;;;;;9179706;19;20021;-66
2022/07/11 04:47:49;;;;;;;10.18;2.80;;;17.80;76.00;;;;;;9180607;19;20014;-66
2022/07/11 04:50:54;;;;;;;8.88;3.33;;;17.80;76.00;;;;;;9179753;19;20074;-66
2022/07/11 04:54:02;;;;;;;9.30;3.55;;;17.80;76.00;;;;;;9178544;19;20007;-66
2022/07/11 04:57:08;;;;;;;9.90;3.40;;;17.80;76.10;;;;;;9181366;19;20078;-65
2022/07/11 05:00:14;;;;;;;7.88;2.90;;;17.80;76.10;;;;;;9179925;19;20364;-66
2022/07/11 05:03:22;;;;;;;6.97;3.30;;;17.80;76.10;;;;;;9177996;19;20014;-67
2022/07/11 05:06:28;;;;;;;7.85;2.85;;;17.80;76.30;;;;;;9178619;19;20015;-65
2022/07/11 05:09:33;;;;;;;7.60;2.70;;;17.80;76.30;;;;;;9179254;19;20014;-65
2022/07/11 05:12:38;;;;;;;5.20;2.97;;;17.80;76.40;;;;;;9180571;19;20011;-67
2022/07/11 05:15:44;;;;;;;5.78;2.85;;;17.80;76.40;;;;;;9178166;19;20471;-66
2022/07/11 05:18:52;;;;;;;6.22;3.03;;;17.90;76.60;;;;;;9178091;19;20018;-65
2022/07/11 05:21:57;;;;;;;3.05;2.38;;;17.90;76.80;;;;;;9172126;19;20015;-65
2022/07/11 05:25:02;;;;;;;5.50;2.75;;;17.80;76.70;;;;;;9174338;19;20029;-65
2022/07/11 05:28:07;;;;;;;4.60;2.70;;;17.90;76.80;;;;;;9173336;19;20508;-66
2022/07/11 05:31:13;;;;;;;4.28;2.95;;;17.90;76.80;;;;;;9172240;19;20023;-66
2022/07/11 05:34:21;;;;;;;5.68;2.80;;;17.90;76.90;;;;;;9173198;19;20018;-65
2022/07/11 05:37:26;;;;;;;5.28;2.75;;;17.90;77.10;;;;;;9174207;19;20388;-65
2022/07/11 05:40:31;;;;;;;3.88;2.80;;;17.90;77.10;;;;;;9174167;19;20352;-65
2022/07/11 05:43:36;;;;;;;6.53;3.58;;;17.90;77.20;;;;;;9165129;19;21064;-66
2022/07/11 05:46:42;;;;;;;5.63;2.72;;;17.90;77.20;;;;;;9172374;19;20056;-66
2022/07/11 05:49:49;;;;;;;4.50;2.58;;;17.90;77.30;;;;;;9170350;19;20033;-66
2022/07/11 05:52:57;;;;;;;6.82;3.05;;;17.90;77.40;;;;;;9176853;19;20025;-65
2022/07/11 05:56:02;;;;;;;6.32;2.65;;;17.90;77.40;;;;;;9177452;19;20018;-66
2022/07/11 05:59:07;;;;;;;5.60;2.55;;;17.90;77.50;;;;;;9178280;19;20490;-66
2022/07/11 06:02:12;;;;;;;3.85;2.53;;;18.00;77.50;;;;;;9181572;19;20019;-66
2022/07/11 06:05:20;;;;;;;5.45;2.55;;;18.00;77.60;;;;;;9182927;19;20038;-65
2022/07/11 06:11:43;;;;;;;5.45;2.35;;;18.00;77.70;;;;;;9185200;19;20036;-65
2022/07/11 06:14:48;;;;;;;3.50;2.13;;;18.00;77.70;;;;;;9186532;19;20015;-65
2022/07/11 06:17:53;;;;;;;3.92;1.88;;;18.00;77.80;;;;;;9187210;19;20010;-65
2022/07/11 06:21:01;;;;;;;6.25;2.72;;;18.10;78.10;;;;;;9187230;19;20086;-65
2022/07/11 06:24:06;;;;;;;1.60;1.50;;;18.10;77.90;;;;;;9182863;19;20022;-66
2022/07/11 06:27:11;;;;;;;3.70;2.08;;;18.10;77.80;;;;;;9184821;19;20407;-66
2022/07/11 06:30:16;;;;;;;2.75;1.50;;;18.10;77.90;;;;;;9181146;19;20015;-66
2022/07/11 06:33:23;;;;;;;5.30;1.75;;;18.10;77.90;;;;;;9179708;19;20126;-66
2022/07/11 06:36:30;;;;;;;3.30;1.85;;;18.10;78.00;;;;;;9179465;19;20039;-68
2022/07/11 06:39:35;;;;;;;3.00;1.60;;;18.20;78.20;;;;;;9174793;19;20056;-65
2022/07/11 06:42:41;;;;;;;2.80;2.13;;;18.20;78.10;;;;;;9175032;19;20015;-65
2022/07/11 06:45:46;;;;;;;1.83;1.63;;;18.20;78.10;;;;;;9176660;19;20014;-66
2022/07/11 06:48:51;;;;;;;3.13;1.60;;;18.20;78.20;;;;;;9180780;19;20376;-66
2022/07/11 06:51:59;;;;;;;4.03;1.63;;;18.30;78.30;;;;;;9180377;19;20025;-65
2022/07/11 06:55:04;;;;;;;2.70;1.33;;;18.30;78.40;;;;;;9182431;19;20010;-66
2022/07/11 06:58:09;;;;;;;2.80;1.65;;;18.30;78.40;;;;;;9180576;19;20056;-64
2022/07/11 07:01:29;;;;;;;2.42;1.30;;;18.40;78.60;;;;;;9178283;19;20110;-66
2022/07/11 07:04:34;;;;;;;1.70;1.20;;;18.40;78.50;;;;;;9176247;19;20018;-66
2022/07/11 07:07:42;;;;;;;1.13;1.02;;;18.50;78.50;;;;;;9179204;19;20014;-66
2022/07/11 07:10:48;;;;;;;1.33;0.93;;;18.50;78.40;;;;;;9179238;19;20018;-66
2022/07/11 07:13:53;;;;;;;1.27;1.08;;;18.50;78.30;;;;;;9177500;19;20530;-67
2022/07/11 07:16:58;;;;;;;2.38;0.90;;;18.60;78.30;;;;;;9177385;19;20025;-67
2022/07/11 07:20:03;;;;;;;0.73;0.70;;;18.60;78.20;;;;;;9180579;19;20352;-65
2022/07/11 07:23:10;;;;;;;1.05;0.65;;;18.60;78.10;;;;;;9181666;19;20029;-65
2022/07/11 07:26:16;;;;;;;1.35;0.88;;;18.70;78.30;;;;;;9178956;19;20554;-66
2022/07/11 07:29:25;;;;;;;1.60;0.70;;;18.70;78.40;;;;;;9179808;19;20014;-66
2022/07/11 07:32:30;;;;;;;0.82;0.80;;;18.80;78.60;;;;;;9179509;19;20041;-65
2022/07/11 07:35:41;;;;;;;1.13;0.68;;;18.90;78.70;;;;;;9176563;19;20526;-66
2022/07/11 07:38:49;;;;;;;0.85;0.77;;;19.00;78.60;;;;;;9178740;19;20352;-66
2022/07/11 07:41:58;;;;;;;0.60;0.60;;;19.20;78.40;;;;;;9171472;19;20018;-66
2022/07/11 07:45:04;;;;;;;1.33;0.77;;;19.30;78.20;;;;;;9183750;19;20364;-67
2022/07/11 07:48:09;;;;;;;0.88;0.68;;;19.40;77.80;;;;;;9181685;19;20019;-66
2022/07/11 07:51:15;;;;;;;0.93;0.57;;;19.50;77.70;;;;;;9182582;19;20495;-66
2022/07/11 07:54:22;;;;;;;5.57;0.70;;;19.50;77.50;;;;;;9181895;19;20015;-66
2022/07/11 07:57:28;;;;;;;0.82;0.75;;;19.60;77.40;;;;;;9183130;19;20014;-66
2022/07/11 08:03:50;;;;;;;0.57;0.57;;;19.70;77.10;;;;;;9175881;19;20022;-66
2022/07/11 08:06:56;;;;;;;0.40;0.40;;;19.70;76.90;;;;;;9176152;19;20015;-67
2022/07/11 08:10:04;;;;;;;1.15;0.70;;;19.70;76.80;;;;;;9181174;19;20022;-65
2022/07/11 08:13:09;;;;;;;2.45;0.85;;;19.70;76.80;;;;;;9175316;19;20086;-65
2022/07/11 08:16:16;;;;;;;1.25;0.47;;;19.70;76.70;;;;;;9174875;19;20006;-65
2022/07/11 08:19:21;;;;;;;2.30;0.65;;;19.70;76.60;;;;;;9176445;19;20018;-65
2022/07/11 08:22:27;;;;;;;0.50;0.30;;;19.70;76.60;;;;;;9180042;19;20109;-65
2022/07/11 08:25:37;;;;;;;1.67;0.70;;;19.70;76.60;;;;;;9179239;19;20026;-65
2022/07/11 08:28:42;;;;;;;2.20;0.50;;;19.70;76.50;;;;;;9176908;19;20022;-65
2022/07/11 08:31:47;;;;;;;0.85;0.52;;;19.70;76.50;;;;;;9174763;19;20333;-65
2022/07/11 08:34:53;;;;;;;0.57;0.43;;;19.70;76.50;;;;;;9177217;19;20135;-65
2022/07/11 08:37:58;;;;;;;0.40;0.22;;;19.70;76.50;;;;;;9175962;19;20019;-66
2022/07/11 08:41:06;;;;;;;0.40;0.40;;;19.70;76.40;;;;;;9176637;19;20082;-67
2022/07/11 08:44:14;;;;;;;1.38;0.50;;;19.70;76.40;;;;;;9171591;19;20018;-65
2022/07/11 08:47:19;;;;;;;0.52;0.52;;;19.80;76.40;;;;;;9172368;19;20110;-65
2022/07/11 08:50:25;;;;;;;2.15;0.95;;;19.80;76.30;;;;;;9171204;19;20090;-66
2022/07/11 08:53:33;;;;;;;8.38;0.65;;;19.70;76.20;;;;;;9174784;19;20041;-66
2022/07/11 08:56:49;;;;;;;0.47;0.40;;;19.80;76.20;;;;;;9174251;19;20029;-65
2022/07/11 08:59:56;;;;;;;1.00;0.63;;;19.80;76.20;;;;;;9174041;19;20029;-65
2022/07/11 09:03:06;;;;;;;0.65;0.40;;;19.70;76.10;;;;;;9176365;19;21766;-66
2022/07/11 09:06:11;;;;;;;0.50;0.38;;;19.70;76.10;;;;;;9177459;19;20021;-65
2022/07/11 09:09:16;;;;;;;1.67;0.50;;;19.70;76.10;;;;;;9177992;19;20033;-66
2022/07/11 09:12:26;;;;;;;1.13;0.50;;;19.80;76.10;;;;;;9178651;19;20010;-65
2022/07/11 09:15:35;;;;;;;1.10;0.40;;;19.80;76.10;;;;;;9181280;19;20034;-67
2022/07/11 09:18:41;;;;;;;0.88;0.30;;;19.80;76.00;;;;;;9178194;19;20027;-67
2022/07/11 09:25:24;;;;;;;0.52;0.40;;;19.90;75.90;;;;;;9177631;19;20014;-67
2022/07/11 09:28:31;;;;;;;1.85;0.50;;;20.00;75.80;;;;;;9173422;19;20025;-65
2022/07/11 09:31:44;;;;;;;0.80;0.45;;;20.00;75.80;;;;;;9175171;19;20018;-67
2022/07/11 09:35:05;;;;;;;0.80;0.28;;;20.10;75.80;;;;;;9175227;19;20018;-68
2022/07/11 09:38:12;;;;;;;0.93;0.50;;;20.10;75.60;;;;;;9183624;19;20078;-66
2022/07/11 09:41:22;;;;;;;0.57;0.40;;;20.10;75.60;;;;;;9180059;19;20018;-66
2022/07/11 09:44:33;;;;;;;1.58;0.32;;;20.10;75.50;;;;;;9182572;19;20014;-68
2022/07/11 09:47:46;;;;;;;1.17;0.40;;;20.20;75.50;;;;;;9184035;19;20014;-66
2022/07/11 09:51:04;;;;;;;1.30;0.60;;;20.20;75.40;;;;;;9181660;19;20455;-66
2022/07/11 09:54:10;;;;;;;0.35;0.35;;;20.30;75.50;;;;;;9185256;19;20018;-66
2022/07/11 09:57:19;;;;;;;0.68;0.30;;;20.30;76.10;;;;;;9182171;19;20025;-65
2022/07/11 10:00:27;;;;;;;0.50;0.50;;;20.40;75.30;;;;;;9183727;19;20029;-68
2022/07/11 10:03:38;;;;;;;0.52;0.50;;;20.40;75.30;;;;;;9183941;19;20011;-68
2022/07/11 10:07:02;;;;;;;0.95;0.30;;;20.40;75.20;;;;;;9182223;19;20018;-67
2022/07/11 10:10:10;;;;;;;0.20;0.20;;;20.50;75.20;;;;;;9181207;19;20057;-67
2022/07/11 10:13:15;;;;;;;0.30;0.30;;;20.50;75.20;;;;;;9182801;19;20098;-67
2022/07/11 10:16:41;;;;;;;0.30;0.30;;;20.50;75.20;;;;;;9181168;19;20102;-69
2022/07/11 10:19:54;;;;;;;1.02;0.28;;;20.60;75.20;;;;;;9181251;19;20130;-67
2022/07/11 10:23:08;;;;;;;0.10;0.10;;;20.60;75.10;;;;;;9181302;19;20019;-67
2022/07/11 10:26:20;;;;;;;0.68;0.30;;;20.70;75.10;;;;;;9179986;19;20018;-66
2022/07/11 10:29:31;;;;;;;0.30;0.20;;;20.70;75.00;;;;;;9179012;19;20490;-66
2022/07/11 10:33:01;;;;;;;1.05;0.30;;;20.80;75.00;;;;;;9183919;19;20357;-68
2022/07/11 10:36:07;;;;;;;0.63;0.20;;;20.90;74.90;;;;;;9183194;19;20029;-67
2022/07/11 10:39:19;;;;;;;0.20;0.10;;;21.00;74.90;;;;;;9183324;19;20017;-67
2022/07/11 10:42:40;;;;;;;1.63;0.30;;;21.00;74.70;;;;;;9176536;19;20043;-69
2022/07/11 10:46:00;;;;;;;0.28;0.28;;;21.10;74.60;;;;;;9178194;19;20014;-69
2022/07/11 10:49:18;;;;;;;0.32;0.30;;;21.20;74.40;;;;;;9177714;19;20018;-68
2022/07/11 10:52:26;;;;;;;0.28;0.28;;;21.30;74.40;;;;;;9179922;19;20010;-68
2022/07/11 10:55:37;;;;;;;1.45;0.47;;;21.30;74.30;;;;;;9180038;19;20020;-70
2022/07/11 10:58:45;;;;;;;0.40;0.40;;;21.40;74.20;;;;;;9177034;19;20074;-68
2022/07/11 11:02:19;;;;;;;0.55;0.30;;;21.40;74.10;;;;;;9181241;19;20501;-69
2022/07/11 11:05:52;;;;;;;0.30;0.30;;;21.40;73.90;;;;;;9183279;19;20010;-69
2022/07/11 11:08:57;;;;;;;1.23;0.40;;;21.40;73.80;;;;;;9182835;19;20018;-68
2022/07/11 11:12:02;;;;;;;0.65;0.32;;;21.40;73.80;;;;;;9178230;19;20030;-66
2022/07/11 11:15:34;;;;;;;0.88;0.60;;;21.50;73.90;;;;;;9184580;19;20074;-67
2022/07/11 11:18:45;;;;;;;4.32;0.80;;;21.40;73.80;;;;;;9183138;19;20356;-66
2022/07/11 11:22:15;;;;;;;0.50;0.30;;;21.40;73.80;;;;;;9179071;19;20018;-66
2022/07/11 11:25:20;;;;;;;0.47;0.30;;;21.50;73.70;;;;;;9174600;19;20021;-68
2022/07/11 11:28:28;;;;;;;1.33;0.90;;;21.50;73.80;;;;;;9182833;19;20381;-66
2022/07/11 11:31:34;;;;;;;1.45;0.40;;;21.50;73.70;;;;;;9178016;19;20025;-65
2022/07/11 11:34:41;;;;;;;1.10;0.50;;;21.60;73.70;;;;;;9178259;19;20030;-66
2022/07/11 11:37:49;;;;;;;0.63;0.38;;;21.70;73.60;;;;;;9181065;19;20498;-67
2022/07/11 11:40:55;;;;;;;1.20;0.50;;;21.70;73.50;;;;;;9181278;19;20025;-67
2022/07/11 11:44:06;;;;;;;0.98;0.40;;;21.70;73.30;;;;;;9183383;19;20014;-66
2022/07/11 11:47:11;;;;;;;1.65;0.73;;;21.80;73.20;;;;;;9184971;19;20011;-67
2022/07/11 11:50:20;;;;;;;1.65;0.50;;;21.80;73.10;;;;;;9182114;19;20018;-68
2022/07/11 11:53:29;;;;;;;1.05;0.50;;;21.80;73.00;;;;;;9181838;19;20017;-67
2022/07/11 11:56:36;;;;;;;0.73;0.55;;;21.80;73.00;;;;;;9181494;19;20014;-66
2022/07/11 11:59:42;;;;;;;0.57;0.40;;;21.80;73.10;;;;;;9181939;19;20010;-66
2022/07/11 12:02:49;;;;;;;0.40;0.40;;;21.80;73.10;;;;;;9181119;19;20442;-65
2022/07/11 12:05:57;;;;;;;0.60;0.40;;;21.90;73.10;;;;;;9179436;19;20529;-67
2022/07/11 12:09:08;;;;;;;0.82;0.68;;;21.90;73.20;;;;;;9182217;19;20345;-68
2022/07/11 12:15:34;;;;;;;0.77;0.50;;;22.10;73.20;;;;;;9180381;19;20089;-67
2022/07/11 12:18:40;;;;;;;1.85;0.50;;;22.20;73.00;;;;;;9178674;19;20019;-67
2022/07/11 12:21:48;;;;;;;0.65;0.60;;;22.30;72.90;;;;;;9178132;19;20038;-68
2022/07/11 12:24:56;;;;;;;0.88;0.55;;;22.30;72.70;;;;;;9175759;19;20014;-67
2022/07/11 12:28:01;;;;;;;2.55;0.47;;;22.50;72.60;;;;;;9177564;19;20060;-67
2022/07/11 12:31:07;;;;;;;4.18;0.30;;;22.60;72.40;;;;;;9177066;19;20014;-67
2022/07/11 12:34:12;;;;;;;3.13;0.43;;;22.70;72.30;;;;;;9172875;19;20018;-67
2022/07/11 12:37:19;;;;;;;1.58;0.40;;;22.70;72.10;;;;;;9175648;19;20011;-66
2022/07/11 12:40:30;;;;;;;1.17;0.63;;;22.80;71.90;;;;;;9176156;19;20018;-66
2022/07/11 12:47:09;;;;;;;0.70;0.50;;;22.90;71.60;;;;;;9172254;19;20032;-68
2022/07/11 12:50:16;;;;;;;1.17;0.50;;;23.00;71.80;;;;;;9171930;19;20019;-67
2022/07/11 12:53:21;;;;;;;0.70;0.30;;;23.00;71.70;;;;;;9168700;19;20006;-69
2022/07/11 12:56:29;;;;;;;0.47;0.47;;;23.10;71.60;;;;;;9170419;19;20470;-67
2022/07/11 12:59:36;;;;;;;1.08;0.70;;;23.10;71.50;;;;;;9171249;19;20050;-69
2022/07/11 13:02:42;;;;;;;0.57;0.57;;;23.20;71.50;;;;;;9169059;19;20026;-68
2022/07/11 13:05:51;;;;;;;0.60;0.40;;;23.30;71.50;;;;;;9167196;19;20015;-67
2022/07/11 13:08:53;;;;;;;0.82;0.60;;;23.40;71.30;;;;;;9174813;19;20023;-66
2022/07/11 13:12:01;;;;;;;1.25;0.50;;;23.50;71.10;;;;;;9169749;19;20030;-67
2022/07/11 13:15:11;;;;;;;1.40;0.68;;;23.60;70.80;;;;;;9172905;19;20014;-67
2022/07/11 13:18:17;;;;;;;1.52;0.45;;;23.60;70.70;;;;;;9169571;19;20025;-67
2022/07/11 13:21:25;;;;;;;1.50;0.50;;;23.70;70.50;;;;;;9173368;19;20575;-68
2022/07/11 13:24:30;;;;;;;1.63;0.68;;;23.80;70.40;;;;;;9172516;19;20029;-69
2022/07/11 13:27:40;;;;;;;0.80;0.47;;;23.80;70.10;;;;;;9170106;19;20014;-67
2022/07/11 13:30:46;;;;;;;1.15;0.35;;;23.90;70.00;;;;;;9169995;19;20029;-69
2022/07/11 13:34:11;;;;;;;2.25;0.30;;;23.90;69.90;;;;;;9170821;19;20015;-67
2022/07/11 13:37:17;;;;;;;0.60;0.28;;;23.90;69.80;;;;;;9173545;19;20026;-67
2022/07/11 13:40:25;;;;;;;1.55;0.50;;;23.90;69.70;;;;;;9169405;19;20055;-67
2022/07/11 13:43:33;;;;;;;0.47;0.40;;;23.90;69.60;;;;;;9170714;19;20018;-68
2022/07/11 13:46:39;;;;;;;0.30;0.30;;;23.90;69.50;;;;;;9173943;19;20018;-67
2022/07/11 13:49:44;;;;;;;0.40;0.40;;;23.90;69.60;;;;;;9172168;19;20021;-68
2022/07/11 13:52:50;;;;;;;0.73;0.30;;;23.90;69.50;;;;;;9172337;19;20418;-68
2022/07/11 13:55:58;;;;;;;3.45;0.30;;;23.90;69.40;;;;;;9171863;19;20023;-68
2022/07/11 13:59:06;;;;;;;0.80;0.43;;;23.90;69.40;;;;;;9172770;19;20014;-68
2022/07/11 14:02:14;;;;;;;0.60;0.60;;;23.90;69.40;;;;;;9172687;19;20038;-67
2022/07/11 14:05:22;;;;;;;0.70;0.50;;;24.00;69.40;;;;;;9165983;19;20035;-68
2022/07/11 14:08:28;;;;;;;0.65;0.32;;;24.00;69.40;;;;;;9168535;19;20373;-69
2022/07/11 14:11:33;;;;;;;2.08;0.47;;;24.10;69.30;;;;;;9171419;19;20368;-67
2022/07/11 14:14:40;;;;;;;0.80;0.55;;;24.20;69.90;;;;;;9170785;19;20023;-68
2022/07/11 14:17:45;;;;;;;2.28;0.77;;;24.30;69.00;;;;;;9168586;19;20017;-68
2022/07/11 14:20:52;;;;;;;1.80;0.50;;;24.30;68.90;;;;;;9168466;19;20052;-68
2022/07/11 14:23:57;;;;;;;0.77;0.47;;;24.40;68.80;;;;;;9175371;19;20014;-68
2022/07/11 14:27:02;;;;;;;0.85;0.60;;;24.50;68.60;;;;;;9174500;19;20014;-69
2022/07/11 14:30:21;;;;;;;1.02;0.40;;;24.50;68.40;;;;;;9177359;19;20018;-67
2022/07/11 14:33:27;;;;;;;3.10;0.60;;;24.50;68.30;;;;;;9176445;19;20044;-67
2022/07/11 14:36:37;;;;;;;0.30;0.30;;;24.50;68.20;;;;;;9177994;19;20018;-68
2022/07/11 14:39:42;;;;;;;2.67;0.30;;;24.50;68.10;;;;;;9180384;19;20018;-67
2022/07/11 14:42:49;;;;;;;0.98;0.70;;;24.50;68.00;;;;;;9172682;19;20442;-67
2022/07/11 14:45:57;;;;;;;0.47;0.47;;;24.50;67.90;;;;;;9178258;19;20058;-67
2022/07/11 14:49:08;;;;;;;0.93;0.43;;;24.50;67.80;;;;;;9178916;19;20014;-67
2022/07/11 14:52:13;;;;;;;0.60;0.40;;;24.50;67.90;;;;;;9177498;19;20033;-67
2022/07/11 14:55:21;;;;;;;0.43;0.40;;;24.50;67.90;;;;;;9178689;19;20007;-66
2022/07/11 14:58:32;;;;;;;2.38;0.50;;;24.50;67.80;;;;;;9181079;19;21586;-68
2022/07/11 15:01:46;;;;;;;0.47;0.20;;;24.50;67.80;;;;;;9180878;19;20015;-67
2022/07/11 15:04:51;;;;;;;0.40;0.40;;;24.50;67.60;;;;;;9184031;19;20098;-65
2022/07/11 15:14:39;;;;;;;2.03;0.60;;;24.50;67.50;;;;;;9180840;19;20050;-67
2022/07/11 15:17:47;;;;;;;1.27;0.40;;;24.50;67.50;;;;;;9181132;19;20110;-67
2022/07/11 15:20:53;;;;;;;0.40;0.30;;;24.40;67.40;;;;;;9181171;19;20048;-67
2022/07/11 15:23:58;;;;;;;2.45;0.50;;;24.40;67.30;;;;;;9173321;19;20022;-68
2022/07/11 15:27:04;;;;;;;0.75;0.40;;;24.40;67.40;;;;;;9172717;19;20025;-68
2022/07/11 15:30:13;;;;;;;0.50;0.50;;;24.30;67.30;;;;;;9173830;19;20017;-67
2022/07/11 15:33:21;;;;;;;2.70;0.57;;;24.30;67.30;;;;;;9175714;19;20603;-67
2022/07/11 15:36:26;;;;;;;0.82;0.55;;;24.30;67.20;;;;;;9173662;19;20018;-68
2022/07/11 15:39:31;;;;;;;0.50;0.50;;;24.30;67.40;;;;;;9181190;19;20025;-67
2022/07/11 15:42:36;;;;;;;0.45;0.32;;;24.20;67.20;;;;;;9173843;19;20018;-67
2022/07/11 15:45:41;;;;;;;2.75;0.40;;;24.20;67.30;;;;;;9178126;19;20014;-66
2022/07/11 15:48:55;;;;;;;1.63;0.35;;;24.20;67.30;;;;;;9179515;19;20464;-67
2022/07/11 15:52:00;;;;;;;1.10;0.57;;;24.20;67.30;;;;;;9183260;19;20014;-67
2022/07/11 15:55:07;;;;;;;1.73;0.52;;;24.20;67.50;;;;;;9183540;19;20014;-68
2022/07/11 15:58:12;;;;;;;0.73;0.40;;;24.10;67.30;;;;;;9184132;19;20040;-66
2022/07/11 16:01:20;;;;;;;0.52;0.30;;;24.10;67.40;;;;;;9181890;19;20014;-68
2022/07/11 16:04:28;;;;;;;1.08;0.50;;;24.10;67.40;;;;;;9181219;19;20040;-66
2022/07/11 16:07:36;;;;;;;0.95;0.38;;;24.10;67.30;;;;;;9181131;19;20025;-65
2022/07/11 16:10:44;;;;;;;0.93;0.50;;;24.10;67.40;;;;;;9182971;19;20094;-68
2022/07/11 16:13:54;;;;;;;2.25;1.05;;;24.10;67.30;;;;;;9183568;19;20022;-67
2022/07/11 16:17:04;;;;;;;1.88;0.40;;;24.10;67.20;;;;;;9181947;19;20026;-66
2022/07/11 16:20:15;;;;;;;0.70;0.40;;;24.10;67.30;;;;;;9182070;19;20010;-66
2022/07/11 16:23:20;;;;;;;4.28;0.50;;;24.00;67.20;;;;;;9177519;19;20974;-66
2022/07/11 16:26:25;;;;;;;0.30;0.30;;;24.10;67.20;;;;;;9178809;19;20006;-67
2022/07/11 16:29:33;;;;;;;0.30;0.30;;;24.00;67.20;;;;;;9181671;19;20014;-66
2022/07/11 16:32:38;;;;;;;0.90;0.50;;;24.00;67.10;;;;;;9178357;19;20148;-66
2022/07/11 16:35:51;;;;;;;0.85;0.45;;;24.00;67.10;;;;;;9177390;19;20029;-66
2022/07/11 16:45:35;;;;;;;0.98;0.50;;;23.90;67.00;;;;;;9168127;19;20106;-68